sensor_id;sensor_type;location;lat;lon;timestamp;temperature;humidity
11107;DHT22;5607;48.302;14.294;2023-05-02T00:02:02;14.50;1.00
11107;DHT22;5607;48.302;14.294;2023-05-02T00:04:49;14.50;1.00
11107;DHT22;5607;48.302;14.294;2023-05-02T00:07:35;14.50;1.00
11107;DHT22;5607;48.302;14.294;2023-05-02T00:10:21;14.60;1.00
11107;DHT22;5607;48.302;14.294;2023-05-02T00:13:07;14.50;1.00
11107;DHT22;5607;48.302;14.294;2023-05-02T00:15:53;14.60;1.00
11107;DHT22;5607;48.302;14.294;2023-05-02T00:18:40;14.60;1.00
11107;DHT22;5607;48.302;14.294;2023-05-02T00:21:26;14.60;1.00
11107;DHT22;5607;48.302;14.294;2023-05-02T00:24:14;14.50;1.00
11107;DHT22;5607;48.302;14.294;2023-05-02T00:27:01;14.50;1.00
11107;DHT22;5607;48.302;14.294;2023-05-02T00:29:47;14.50;1.00
11107;DHT22;5607;48.302;14.294;2023-05-02T00:32:33;14.50;1.00
11107;DHT22;5607;48.302;14.294;2023-05-02T00:35:19;14.50;1.00
11107;DHT22;5607;48.302;14.294;2023-05-02T00:38:06;14.40;1.00
11107;DHT22;5607;48.302;14.294;2023-05-02T00:40:52;14.40;1.00
11107;DHT22;5607;48.302;14.294;2023-05-02T00:43:39;14.40;1.00
11107;DHT22;5607;48.302;14.294;2023-05-02T00:46:26;14.50;1.00
11107;DHT22;5607;48.302;14.294;2023-05-02T00:49:12;14.60;1.00
11107;DHT22;5607;48.302;14.294;2023-05-02T00:51:58;14.60;1.00
11107;DHT22;5607;48.302;14.294;2023-05-02T00:54:44;14.60;1.00
11107;DHT22;5607;48.302;14.294;2023-05-02T00:57:32;14.60;1.00
11107;DHT22;5607;48.302;14.294;2023-05-02T01:00:19;14.60;1.00
11107;DHT22;5607;48.302;14.294;2023-05-02T01:03:16;14.50;1.00
11107;DHT22;5607;48.302;14.294;2023-05-02T01:08:55;14.40;1.00
11107;DHT22;5607;48.302;14.294;2023-05-02T01:11:59;14.30;1.00
11107;DHT22;5607;48.302;14.294;2023-05-02T01:14:55;14.30;1.00
11107;DHT22;5607;48.302;14.294;2023-05-02T01:29:51;14.10;1.00
11107;DHT22;5607;48.302;14.294;2023-05-02T01:32:38;14.00;1.00
11107;DHT22;5607;48.302;14.294;2023-05-02T01:35:25;14.00;1.00
11107;DHT22;5607;48.302;14.294;2023-05-02T01:38:13;14.00;1.00
11107;DHT22;5607;48.302;14.294;2023-05-02T01:41:00;14.20;1.00
11107;DHT22;5607;48.302;14.294;2023-05-02T01:43:50;14.20;1.00
11107;DHT22;5607;48.302;14.294;2023-05-02T01:46:37;14.30;1.00
11107;DHT22;5607;48.302;14.294;2023-05-02T01:49:24;14.30;1.00
11107;DHT22;5607;48.302;14.294;2023-05-02T01:52:11;14.40;1.00
11107;DHT22;5607;48.302;14.294;2023-05-02T01:54:58;14.40;1.00
11107;DHT22;5607;48.302;14.294;2023-05-02T01:57:46;14.40;1.00
11107;DHT22;5607;48.302;14.294;2023-05-02T02:00:33;14.30;1.00
11107;DHT22;5607;48.302;14.294;2023-05-02T02:03:19;14.30;1.00
11107;DHT22;5607;48.302;14.294;2023-05-02T02:06:06;14.40;1.00
11107;DHT22;5607;48.302;14.294;2023-05-02T02:08:53;14.30;1.00
11107;DHT22;5607;48.302;14.294;2023-05-02T02:11:44;14.30;1.00
11107;DHT22;5607;48.302;14.294;2023-05-02T02:14:33;14.40;1.00
11107;DHT22;5607;48.302;14.294;2023-05-02T02:17:29;14.30;1.00
11107;DHT22;5607;48.302;14.294;2023-05-02T02:20:17;14.30;1.00
11107;DHT22;5607;48.302;14.294;2023-05-02T02:23:04;14.30;1.00
11107;DHT22;5607;48.302;14.294;2023-05-02T02:25:52;14.40;1.00
11107;DHT22;5607;48.302;14.294;2023-05-02T02:28:39;14.30;1.00
11107;DHT22;5607;48.302;14.294;2023-05-02T02:31:32;14.10;1.00
11107;DHT22;5607;48.302;14.294;2023-05-02T02:34:19;14.10;1.00
11107;DHT22;5607;48.302;14.294;2023-05-02T02:37:15;14.20;1.00
11107;DHT22;5607;48.302;14.294;2023-05-02T02:40:04;14.10;1.00
11107;DHT22;5607;48.302;14.294;2023-05-02T02:45:56;14.10;1.00
11107;DHT22;5607;48.302;14.294;2023-05-02T02:48:49;14.10;1.00
11107;DHT22;5607;48.302;14.294;2023-05-02T02:51:43;14.10;1.00
11107;DHT22;5607;48.302;14.294;2023-05-02T02:54:32;14.20;1.00
11107;DHT22;5607;48.302;14.294;2023-05-02T03:00:15;14.20;1.00
11107;DHT22;5607;48.302;14.294;2023-05-02T03:03:03;14.20;1.00
11107;DHT22;5607;48.302;14.294;2023-05-02T03:05:50;14.20;1.00
11107;DHT22;5607;48.302;14.294;2023-05-02T03:08:40;14.10;1.00
11107;DHT22;5607;48.302;14.294;2023-05-02T03:11:28;14.10;1.00
11107;DHT22;5607;48.302;14.294;2023-05-02T03:14:14;14.10;1.00
11107;DHT22;5607;48.302;14.294;2023-05-02T03:17:00;14.10;1.00
11107;DHT22;5607;48.302;14.294;2023-05-02T03:19:47;14.20;1.00
11107;DHT22;5607;48.302;14.294;2023-05-02T03:22:33;14.20;1.00
11107;DHT22;5607;48.302;14.294;2023-05-02T03:25:19;14.30;1.00
11107;DHT22;5607;48.302;14.294;2023-05-02T03:28:07;14.20;1.00
11107;DHT22;5607;48.302;14.294;2023-05-02T03:30:53;14.10;1.00
11107;DHT22;5607;48.302;14.294;2023-05-02T03:33:39;14.10;1.00
11107;DHT22;5607;48.302;14.294;2023-05-02T03:36:25;14.00;1.00
11107;DHT22;5607;48.302;14.294;2023-05-02T03:39:12;14.00;1.00
11107;DHT22;5607;48.302;14.294;2023-05-02T03:41:58;14.00;1.00
11107;DHT22;5607;48.302;14.294;2023-05-02T03:47:49;13.90;1.00
11107;DHT22;5607;48.302;14.294;2023-05-02T03:50:36;13.80;1.00
11107;DHT22;5607;48.302;14.294;2023-05-02T03:53:22;13.70;1.00
11107;DHT22;5607;48.302;14.294;2023-05-02T03:56:08;13.70;1.00
11107;DHT22;5607;48.302;14.294;2023-05-02T03:58:54;13.70;1.00
11107;DHT22;5607;48.302;14.294;2023-05-02T04:01:41;13.70;1.00
11107;DHT22;5607;48.302;14.294;2023-05-02T04:04:27;13.70;1.00
11107;DHT22;5607;48.302;14.294;2023-05-02T04:07:13;13.60;1.00
11107;DHT22;5607;48.302;14.294;2023-05-02T04:10:04;13.70;1.00
11107;DHT22;5607;48.302;14.294;2023-05-02T04:12:50;13.80;1.00
11107;DHT22;5607;48.302;14.294;2023-05-02T04:15:36;13.90;1.00
11107;DHT22;5607;48.302;14.294;2023-05-02T04:18:23;13.90;1.00
11107;DHT22;5607;48.302;14.294;2023-05-02T04:21:09;13.90;1.00
11107;DHT22;5607;48.302;14.294;2023-05-02T04:23:56;13.90;1.00
11107;DHT22;5607;48.302;14.294;2023-05-02T04:26:42;13.90;1.00
11107;DHT22;5607;48.302;14.294;2023-05-02T04:29:28;14.00;1.00
11107;DHT22;5607;48.302;14.294;2023-05-02T04:32:14;13.90;1.00
11107;DHT22;5607;48.302;14.294;2023-05-02T04:35:01;13.90;1.00
11107;DHT22;5607;48.302;14.294;2023-05-02T04:37:47;13.80;1.00
11107;DHT22;5607;48.302;14.294;2023-05-02T04:40:34;13.80;1.00
11107;DHT22;5607;48.302;14.294;2023-05-02T04:43:20;13.80;1.00
11107;DHT22;5607;48.302;14.294;2023-05-02T04:46:07;13.90;1.00
11107;DHT22;5607;48.302;14.294;2023-05-02T04:48:53;13.90;1.00
11107;DHT22;5607;48.302;14.294;2023-05-02T04:51:39;13.90;1.00
11107;DHT22;5607;48.302;14.294;2023-05-02T04:54:25;13.80;1.00
11107;DHT22;5607;48.302;14.294;2023-05-02T04:57:13;13.90;1.00
11107;DHT22;5607;48.302;14.294;2023-05-02T04:59:59;14.00;1.00
11107;DHT22;5607;48.302;14.294;2023-05-02T05:02:45;14.00;1.00
11107;DHT22;5607;48.302;14.294;2023-05-02T05:05:31;14.00;1.00
11107;DHT22;5607;48.302;14.294;2023-05-02T05:08:18;14.10;1.00
11107;DHT22;5607;48.302;14.294;2023-05-02T05:11:04;14.20;1.00
11107;DHT22;5607;48.302;14.294;2023-05-02T05:13:50;14.30;1.00
11107;DHT22;5607;48.302;14.294;2023-05-02T05:16:36;14.20;1.00
11107;DHT22;5607;48.302;14.294;2023-05-02T05:19:23;13.80;1.00
11107;DHT22;5607;48.302;14.294;2023-05-02T05:22:09;13.90;1.00
11107;DHT22;5607;48.302;14.294;2023-05-02T05:24:57;14.00;1.00
11107;DHT22;5607;48.302;14.294;2023-05-02T05:27:43;14.10;1.00
11107;DHT22;5607;48.302;14.294;2023-05-02T05:30:29;14.20;1.00
11107;DHT22;5607;48.302;14.294;2023-05-02T05:33:16;14.30;1.00
11107;DHT22;5607;48.302;14.294;2023-05-02T05:36:05;14.20;1.00
11107;DHT22;5607;48.302;14.294;2023-05-02T05:38:52;14.10;1.00
11107;DHT22;5607;48.302;14.294;2023-05-02T05:41:38;14.10;1.00
11107;DHT22;5607;48.302;14.294;2023-05-02T05:44:24;14.20;1.00
11107;DHT22;5607;48.302;14.294;2023-05-02T05:47:10;14.10;1.00
11107;DHT22;5607;48.302;14.294;2023-05-02T05:49:57;14.30;1.00
11107;DHT22;5607;48.302;14.294;2023-05-02T05:52:43;14.50;1.00
11107;DHT22;5607;48.302;14.294;2023-05-02T05:55:29;14.50;1.00
11107;DHT22;5607;48.302;14.294;2023-05-02T05:58:15;14.50;1.00
11107;DHT22;5607;48.302;14.294;2023-05-02T06:01:02;14.80;1.00
11107;DHT22;5607;48.302;14.294;2023-05-02T06:03:48;14.90;1.00
11107;DHT22;5607;48.302;14.294;2023-05-02T06:06:34;14.90;1.00
11107;DHT22;5607;48.302;14.294;2023-05-02T06:09:21;15.00;1.00
11107;DHT22;5607;48.302;14.294;2023-05-02T06:12:07;15.10;1.00
11107;DHT22;5607;48.302;14.294;2023-05-02T06:14:53;15.30;1.00
11107;DHT22;5607;48.302;14.294;2023-05-02T06:17:39;15.20;1.00
11107;DHT22;5607;48.302;14.294;2023-05-02T06:20:26;15.10;1.00
11107;DHT22;5607;48.302;14.294;2023-05-02T06:23:15;15.20;1.00
11107;DHT22;5607;48.302;14.294;2023-05-02T06:26:01;15.30;1.00
11107;DHT22;5607;48.302;14.294;2023-05-02T06:28:48;15.50;1.00
11107;DHT22;5607;48.302;14.294;2023-05-02T06:31:34;15.70;1.40
11107;DHT22;5607;48.302;14.294;2023-05-02T06:34:20;15.80;99.90
11107;DHT22;5607;48.302;14.294;2023-05-02T06:37:06;15.80;99.90
11107;DHT22;5607;48.302;14.294;2023-05-02T06:39:53;15.70;99.90
11107;DHT22;5607;48.302;14.294;2023-05-02T06:42:39;15.70;99.90
11107;DHT22;5607;48.302;14.294;2023-05-02T06:45:25;15.80;99.90
11107;DHT22;5607;48.302;14.294;2023-05-02T06:48:12;15.90;99.90
11107;DHT22;5607;48.302;14.294;2023-05-02T06:50:58;16.10;99.90
11107;DHT22;5607;48.302;14.294;2023-05-02T06:53:45;16.00;99.90
11107;DHT22;5607;48.302;14.294;2023-05-02T06:56:31;15.60;99.90
11107;DHT22;5607;48.302;14.294;2023-05-02T06:59:17;15.40;1.00
11107;DHT22;5607;48.302;14.294;2023-05-02T07:02:04;15.60;99.90
11107;DHT22;5607;48.302;14.294;2023-05-02T07:04:50;15.80;99.90
11107;DHT22;5607;48.302;14.294;2023-05-02T07:07:36;15.80;99.90
11107;DHT22;5607;48.302;14.294;2023-05-02T07:10:22;16.10;99.90
11107;DHT22;5607;48.302;14.294;2023-05-02T07:13:08;16.20;99.90
11107;DHT22;5607;48.302;14.294;2023-05-02T07:15:55;16.40;99.90
11107;DHT22;5607;48.302;14.294;2023-05-02T07:18:42;16.50;99.90
11107;DHT22;5607;48.302;14.294;2023-05-02T07:21:28;16.40;99.90
11107;DHT22;5607;48.302;14.294;2023-05-02T07:24:14;16.40;99.90
11107;DHT22;5607;48.302;14.294;2023-05-02T07:27:00;16.00;99.90
11107;DHT22;5607;48.302;14.294;2023-05-02T07:29:48;15.80;99.90
11107;DHT22;5607;48.302;14.294;2023-05-02T07:32:35;15.60;99.90
11107;DHT22;5607;48.302;14.294;2023-05-02T07:35:21;15.50;99.90
11107;DHT22;5607;48.302;14.294;2023-05-02T07:41:12;15.40;99.90
11107;DHT22;5607;48.302;14.294;2023-05-02T07:43:59;15.60;99.90
11107;DHT22;5607;48.302;14.294;2023-05-02T07:46:46;15.70;99.90
11107;DHT22;5607;48.302;14.294;2023-05-02T07:49:32;15.80;99.90
11107;DHT22;5607;48.302;14.294;2023-05-02T07:52:18;16.00;99.90
11107;DHT22;5607;48.302;14.294;2023-05-02T07:55:05;16.20;99.90
11107;DHT22;5607;48.302;14.294;2023-05-02T07:57:52;16.40;99.90
11107;DHT22;5607;48.302;14.294;2023-05-02T08:00:38;16.40;99.90
11107;DHT22;5607;48.302;14.294;2023-05-02T08:03:25;16.70;99.90
11107;DHT22;5607;48.302;14.294;2023-05-02T08:06:11;17.00;99.90
11107;DHT22;5607;48.302;14.294;2023-05-02T08:08:58;17.00;99.90
11107;DHT22;5607;48.302;14.294;2023-05-02T08:11:44;17.00;99.90
11107;DHT22;5607;48.302;14.294;2023-05-02T08:14:31;17.20;99.90
11107;DHT22;5607;48.302;14.294;2023-05-02T08:17:18;17.00;99.90
11107;DHT22;5607;48.302;14.294;2023-05-02T08:20:04;16.70;99.90
11107;DHT22;5607;48.302;14.294;2023-05-02T08:22:51;16.60;99.90
11107;DHT22;5607;48.302;14.294;2023-05-02T08:25:37;16.70;99.90
11107;DHT22;5607;48.302;14.294;2023-05-02T08:28:24;16.80;99.90
11107;DHT22;5607;48.302;14.294;2023-05-02T08:31:10;16.20;99.90
11107;DHT22;5607;48.302;14.294;2023-05-02T08:33:57;16.10;99.90
11107;DHT22;5607;48.302;14.294;2023-05-02T08:36:43;16.20;99.90
11107;DHT22;5607;48.302;14.294;2023-05-02T08:39:31;16.10;99.90
11107;DHT22;5607;48.302;14.294;2023-05-02T08:42:18;16.30;99.90
11107;DHT22;5607;48.302;14.294;2023-05-02T08:45:05;16.30;99.90
11107;DHT22;5607;48.302;14.294;2023-05-02T08:47:53;16.80;99.90
11107;DHT22;5607;48.302;14.294;2023-05-02T08:50:43;17.00;99.90
11107;DHT22;5607;48.302;14.294;2023-05-02T08:53:33;17.10;99.90
11107;DHT22;5607;48.302;14.294;2023-05-02T08:56:20;17.50;99.90
11107;DHT22;5607;48.302;14.294;2023-05-02T08:59:06;17.60;99.90
11107;DHT22;5607;48.302;14.294;2023-05-02T09:01:54;17.90;99.90
11107;DHT22;5607;48.302;14.294;2023-05-02T09:04:44;18.40;99.90
11107;DHT22;5607;48.302;14.294;2023-05-02T09:07:44;18.70;99.90
11107;DHT22;5607;48.302;14.294;2023-05-02T09:10:31;18.50;99.90
11107;DHT22;5607;48.302;14.294;2023-05-02T09:13:33;18.80;99.90
11107;DHT22;5607;48.302;14.294;2023-05-02T09:16:21;19.00;99.90
11107;DHT22;5607;48.302;14.294;2023-05-02T09:19:08;19.00;99.90
11107;DHT22;5607;48.302;14.294;2023-05-02T09:22:00;18.80;99.90
11107;DHT22;5607;48.302;14.294;2023-05-02T09:24:52;18.80;99.90
11107;DHT22;5607;48.302;14.294;2023-05-02T09:27:54;18.90;99.90
11107;DHT22;5607;48.302;14.294;2023-05-02T09:30:41;18.60;99.90
11107;DHT22;5607;48.302;14.294;2023-05-02T09:33:27;18.70;99.90
11107;DHT22;5607;48.302;14.294;2023-05-02T09:36:15;19.00;99.90
11107;DHT22;5607;48.302;14.294;2023-05-02T09:39:07;19.40;99.90
11107;DHT22;5607;48.302;14.294;2023-05-02T09:41:55;19.20;99.90
11107;DHT22;5607;48.302;14.294;2023-05-02T09:44:41;19.00;99.90
11107;DHT22;5607;48.302;14.294;2023-05-02T09:47:28;19.30;99.90
11107;DHT22;5607;48.302;14.294;2023-05-02T09:50:32;19.70;99.90
11107;DHT22;5607;48.302;14.294;2023-05-02T09:53:19;19.70;99.90
11107;DHT22;5607;48.302;14.294;2023-05-02T09:56:06;19.50;99.90
11107;DHT22;5607;48.302;14.294;2023-05-02T09:59:10;19.20;99.90
11107;DHT22;5607;48.302;14.294;2023-05-02T10:02:00;18.90;99.90
11107;DHT22;5607;48.302;14.294;2023-05-02T10:04:47;19.00;99.90
11107;DHT22;5607;48.302;14.294;2023-05-02T10:07:34;18.80;99.90
11107;DHT22;5607;48.302;14.294;2023-05-02T10:10:20;18.70;99.90
11107;DHT22;5607;48.302;14.294;2023-05-02T10:13:07;19.30;99.90
11107;DHT22;5607;48.302;14.294;2023-05-02T10:15:56;19.50;99.90
11107;DHT22;5607;48.302;14.294;2023-05-02T10:21:48;18.70;99.90
11107;DHT22;5607;48.302;14.294;2023-05-02T10:24:34;19.20;99.90
11107;DHT22;5607;48.302;14.294;2023-05-02T10:27:20;17.90;99.90
11107;DHT22;5607;48.302;14.294;2023-05-02T10:30:07;18.10;99.90
11107;DHT22;5607;48.302;14.294;2023-05-02T10:32:54;17.80;99.90
11107;DHT22;5607;48.302;14.294;2023-05-02T10:35:44;17.80;99.90
11107;DHT22;5607;48.302;14.294;2023-05-02T10:38:34;17.90;99.90
11107;DHT22;5607;48.302;14.294;2023-05-02T10:41:21;18.40;99.90
11107;DHT22;5607;48.302;14.294;2023-05-02T10:44:09;18.90;99.90
11107;DHT22;5607;48.302;14.294;2023-05-02T10:46:55;19.40;99.90
11107;DHT22;5607;48.302;14.294;2023-05-02T10:49:52;19.40;99.90
11107;DHT22;5607;48.302;14.294;2023-05-02T10:52:38;19.50;99.90
11107;DHT22;5607;48.302;14.294;2023-05-02T10:55:26;19.30;99.90
11107;DHT22;5607;48.302;14.294;2023-05-02T11:04:04;19.80;99.90
11107;DHT22;5607;48.302;14.294;2023-05-02T11:09:44;19.20;99.90
11107;DHT22;5607;48.302;14.294;2023-05-02T11:12:43;18.80;99.90
11107;DHT22;5607;48.302;14.294;2023-05-02T11:18:26;18.60;99.90
11107;DHT22;5607;48.302;14.294;2023-05-02T11:21:33;18.10;99.90
11107;DHT22;5607;48.302;14.294;2023-05-02T11:24:36;17.90;99.90
11107;DHT22;5607;48.302;14.294;2023-05-02T11:30:15;18.40;99.90
11107;DHT22;5607;48.302;14.294;2023-05-02T11:33:22;18.40;99.90
11107;DHT22;5607;48.302;14.294;2023-05-02T11:36:08;17.60;99.90
11107;DHT22;5607;48.302;14.294;2023-05-02T11:38:54;17.30;99.90
11107;DHT22;5607;48.302;14.294;2023-05-02T11:41:41;17.40;99.90
11107;DHT22;5607;48.302;14.294;2023-05-02T11:44:27;17.60;99.90
11107;DHT22;5607;48.302;14.294;2023-05-02T11:47:14;17.50;99.90
11107;DHT22;5607;48.302;14.294;2023-05-02T11:50:03;16.90;99.90
11107;DHT22;5607;48.302;14.294;2023-05-02T11:52:49;16.70;99.90
11107;DHT22;5607;48.302;14.294;2023-05-02T11:55:35;17.00;99.90
11107;DHT22;5607;48.302;14.294;2023-05-02T11:58:23;17.40;99.90
11107;DHT22;5607;48.302;14.294;2023-05-02T12:01:10;17.70;99.90
11107;DHT22;5607;48.302;14.294;2023-05-02T12:04:05;18.10;99.90
11107;DHT22;5607;48.302;14.294;2023-05-02T12:06:55;18.50;99.90
11107;DHT22;5607;48.302;14.294;2023-05-02T12:09:52;18.70;99.90
11107;DHT22;5607;48.302;14.294;2023-05-02T12:12:39;18.70;99.90
11107;DHT22;5607;48.302;14.294;2023-05-02T12:15:25;18.60;99.90
11107;DHT22;5607;48.302;14.294;2023-05-02T12:18:12;18.40;99.90
11107;DHT22;5607;48.302;14.294;2023-05-02T12:20:59;18.30;99.90
11107;DHT22;5607;48.302;14.294;2023-05-02T12:23:45;18.00;99.90
11107;DHT22;5607;48.302;14.294;2023-05-02T12:26:31;17.70;99.90
11107;DHT22;5607;48.302;14.294;2023-05-02T12:29:18;17.40;99.90
11107;DHT22;5607;48.302;14.294;2023-05-02T12:32:04;17.20;99.90
11107;DHT22;5607;48.302;14.294;2023-05-02T12:34:51;17.10;99.90
11107;DHT22;5607;48.302;14.294;2023-05-02T12:37:37;17.20;99.90
11107;DHT22;5607;48.302;14.294;2023-05-02T12:40:24;16.70;99.90
11107;DHT22;5607;48.302;14.294;2023-05-02T12:43:11;16.40;99.90
11107;DHT22;5607;48.302;14.294;2023-05-02T12:46:09;16.20;99.90
11107;DHT22;5607;48.302;14.294;2023-05-02T12:49:06;16.20;1.00
11107;DHT22;5607;48.302;14.294;2023-05-02T12:51:57;16.20;99.90
11107;DHT22;5607;48.302;14.294;2023-05-02T12:54:43;16.30;99.90
11107;DHT22;5607;48.302;14.294;2023-05-02T12:57:30;16.40;99.90
11107;DHT22;5607;48.302;14.294;2023-05-02T13:00:16;16.50;99.90
11107;DHT22;5607;48.302;14.294;2023-05-02T13:03:06;16.70;99.90
11107;DHT22;5607;48.302;14.294;2023-05-02T13:05:53;16.80;99.90
11107;DHT22;5607;48.302;14.294;2023-05-02T13:08:39;17.00;99.90
11107;DHT22;5607;48.302;14.294;2023-05-02T13:11:25;17.00;1.00
11107;DHT22;5607;48.302;14.294;2023-05-02T13:14:11;17.10;1.00
11107;DHT22;5607;48.302;14.294;2023-05-02T13:16:57;17.10;1.00
11107;DHT22;5607;48.302;14.294;2023-05-02T13:19:44;16.90;1.00
11107;DHT22;5607;48.302;14.294;2023-05-02T13:22:30;16.90;1.00
11107;DHT22;5607;48.302;14.294;2023-05-02T13:25:16;16.90;1.00
11107;DHT22;5607;48.302;14.294;2023-05-02T13:28:07;17.10;1.00
11107;DHT22;5607;48.302;14.294;2023-05-02T13:30:53;17.30;99.90
11107;DHT22;5607;48.302;14.294;2023-05-02T13:33:39;17.50;99.90
11107;DHT22;5607;48.302;14.294;2023-05-02T13:36:25;17.70;99.90
11107;DHT22;5607;48.302;14.294;2023-05-02T13:39:12;17.90;99.90
11107;DHT22;5607;48.302;14.294;2023-05-02T13:41:58;18.00;99.90
11107;DHT22;5607;48.302;14.294;2023-05-02T13:44:45;17.90;99.90
11107;DHT22;5607;48.302;14.294;2023-05-02T13:47:31;18.10;99.90
11107;DHT22;5607;48.302;14.294;2023-05-02T13:50:17;18.10;99.90
11107;DHT22;5607;48.302;14.294;2023-05-02T13:53:03;18.10;99.90
11107;DHT22;5607;48.302;14.294;2023-05-02T13:55:49;18.00;99.90
11107;DHT22;5607;48.302;14.294;2023-05-02T13:58:36;18.10;99.90
11107;DHT22;5607;48.302;14.294;2023-05-02T14:01:22;18.20;99.90
11107;DHT22;5607;48.302;14.294;2023-05-02T14:04:08;18.30;99.90
11107;DHT22;5607;48.302;14.294;2023-05-02T14:06:55;18.20;99.90
11107;DHT22;5607;48.302;14.294;2023-05-02T14:09:41;18.20;99.90
11107;DHT22;5607;48.302;14.294;2023-05-02T14:12:27;17.90;99.90
11107;DHT22;5607;48.302;14.294;2023-05-02T14:15:14;17.70;99.90
11107;DHT22;5607;48.302;14.294;2023-05-02T14:18:00;17.80;99.90
11107;DHT22;5607;48.302;14.294;2023-05-02T14:20:46;17.90;99.90
11107;DHT22;5607;48.302;14.294;2023-05-02T14:23:32;17.90;99.90
11107;DHT22;5607;48.302;14.294;2023-05-02T14:26:20;17.90;99.90
11107;DHT22;5607;48.302;14.294;2023-05-02T14:29:06;17.80;99.90
11107;DHT22;5607;48.302;14.294;2023-05-02T14:31:53;17.50;99.90
11107;DHT22;5607;48.302;14.294;2023-05-02T14:34:39;17.50;99.90
11107;DHT22;5607;48.302;14.294;2023-05-02T14:37:26;17.60;99.90
11107;DHT22;5607;48.302;14.294;2023-05-02T14:40:13;17.50;99.90
11107;DHT22;5607;48.302;14.294;2023-05-02T14:43:11;17.40;99.90
11107;DHT22;5607;48.302;14.294;2023-05-02T14:45:57;17.40;99.90
11107;DHT22;5607;48.302;14.294;2023-05-02T14:48:43;17.50;99.90
11107;DHT22;5607;48.302;14.294;2023-05-02T14:51:30;17.60;99.90
11107;DHT22;5607;48.302;14.294;2023-05-02T14:54:16;17.40;99.90
11107;DHT22;5607;48.302;14.294;2023-05-02T14:57:03;17.50;99.90
11107;DHT22;5607;48.302;14.294;2023-05-02T14:59:49;17.30;99.90
11107;DHT22;5607;48.302;14.294;2023-05-02T15:02:36;17.30;99.90
11107;DHT22;5607;48.302;14.294;2023-05-02T15:05:22;17.20;99.90
11107;DHT22;5607;48.302;14.294;2023-05-02T15:08:08;17.10;1.00
11107;DHT22;5607;48.302;14.294;2023-05-02T15:10:54;17.00;1.00
11107;DHT22;5607;48.302;14.294;2023-05-02T15:13:42;16.90;99.90
11107;DHT22;5607;48.302;14.294;2023-05-02T15:16:28;16.80;1.00
11107;DHT22;5607;48.302;14.294;2023-05-02T15:19:14;16.70;99.90
11107;DHT22;5607;48.302;14.294;2023-05-02T15:22:01;16.70;1.00
11107;DHT22;5607;48.302;14.294;2023-05-02T15:24:47;16.70;1.00
11107;DHT22;5607;48.302;14.294;2023-05-02T15:27:33;16.60;1.00
11107;DHT22;5607;48.302;14.294;2023-05-02T15:30:20;16.70;1.00
11107;DHT22;5607;48.302;14.294;2023-05-02T15:33:07;16.90;1.00
11107;DHT22;5607;48.302;14.294;2023-05-02T15:35:57;17.10;99.90
11107;DHT22;5607;48.302;14.294;2023-05-02T15:38:43;17.00;1.00
11107;DHT22;5607;48.302;14.294;2023-05-02T15:41:29;17.10;1.00
11107;DHT22;5607;48.302;14.294;2023-05-02T15:44:16;17.10;1.40
11107;DHT22;5607;48.302;14.294;2023-05-02T15:47:02;17.00;99.90
11107;DHT22;5607;48.302;14.294;2023-05-02T15:49:49;16.80;99.90
11107;DHT22;5607;48.302;14.294;2023-05-02T15:52:38;16.90;1.00
11107;DHT22;5607;48.302;14.294;2023-05-02T15:55:24;16.90;99.90
11107;DHT22;5607;48.302;14.294;2023-05-02T15:58:11;16.80;99.90
11107;DHT22;5607;48.302;14.294;2023-05-02T16:00:57;16.80;99.90
11107;DHT22;5607;48.302;14.294;2023-05-02T16:03:43;16.60;1.00
11107;DHT22;5607;48.302;14.294;2023-05-02T16:06:30;16.50;1.00
11107;DHT22;5607;48.302;14.294;2023-05-02T16:09:16;16.60;1.00
11107;DHT22;5607;48.302;14.294;2023-05-02T16:12:02;16.60;1.00
11107;DHT22;5607;48.302;14.294;2023-05-02T16:14:48;16.60;1.00
11107;DHT22;5607;48.302;14.294;2023-05-02T16:17:35;16.50;1.00
11107;DHT22;5607;48.302;14.294;2023-05-02T16:20:21;16.30;1.00
11107;DHT22;5607;48.302;14.294;2023-05-02T16:23:07;16.20;1.00
11107;DHT22;5607;48.302;14.294;2023-05-02T16:25:57;16.10;1.00
11107;DHT22;5607;48.302;14.294;2023-05-02T16:28:44;16.00;1.00
11107;DHT22;5607;48.302;14.294;2023-05-02T16:31:31;16.00;1.00
11107;DHT22;5607;48.302;14.294;2023-05-02T16:34:17;16.10;1.00
11107;DHT22;5607;48.302;14.294;2023-05-02T16:37:04;16.20;1.00
11107;DHT22;5607;48.302;14.294;2023-05-02T16:39:51;16.30;1.00
11107;DHT22;5607;48.302;14.294;2023-05-02T16:42:37;16.30;1.00
11107;DHT22;5607;48.302;14.294;2023-05-02T16:45:25;16.00;1.00
11107;DHT22;5607;48.302;14.294;2023-05-02T16:48:11;16.00;1.00
11107;DHT22;5607;48.302;14.294;2023-05-02T16:50:58;16.10;1.00
11107;DHT22;5607;48.302;14.294;2023-05-02T16:53:45;16.10;1.00
11107;DHT22;5607;48.302;14.294;2023-05-02T16:56:31;15.90;1.00
11107;DHT22;5607;48.302;14.294;2023-05-02T16:59:17;15.70;1.00
11107;DHT22;5607;48.302;14.294;2023-05-02T17:02:04;15.70;1.00
11107;DHT22;5607;48.302;14.294;2023-05-02T17:04:51;15.70;1.00
11107;DHT22;5607;48.302;14.294;2023-05-02T17:07:37;15.50;1.00
11107;DHT22;5607;48.302;14.294;2023-05-02T17:10:23;15.40;1.00
11107;DHT22;5607;48.302;14.294;2023-05-02T17:13:10;15.40;1.00
11107;DHT22;5607;48.302;14.294;2023-05-02T17:15:57;15.30;1.00
11107;DHT22;5607;48.302;14.294;2023-05-02T17:18:44;15.30;1.00
11107;DHT22;5607;48.302;14.294;2023-05-02T17:21:30;15.40;1.00
11107;DHT22;5607;48.302;14.294;2023-05-02T17:24:19;15.30;1.00
11107;DHT22;5607;48.302;14.294;2023-05-02T17:27:06;15.20;1.00
11107;DHT22;5607;48.302;14.294;2023-05-02T17:29:52;15.20;1.00
11107;DHT22;5607;48.302;14.294;2023-05-02T17:32:38;15.30;1.00
11107;DHT22;5607;48.302;14.294;2023-05-02T17:35:25;15.10;1.00
11107;DHT22;5607;48.302;14.294;2023-05-02T17:38:11;15.10;1.00
11107;DHT22;5607;48.302;14.294;2023-05-02T17:40:58;15.10;1.00
11107;DHT22;5607;48.302;14.294;2023-05-02T17:43:44;15.00;1.00
11107;DHT22;5607;48.302;14.294;2023-05-02T17:46:30;15.00;1.00
11107;DHT22;5607;48.302;14.294;2023-05-02T17:49:17;15.00;1.00
11107;DHT22;5607;48.302;14.294;2023-05-02T17:52:03;15.00;1.00
11107;DHT22;5607;48.302;14.294;2023-05-02T17:54:50;14.80;1.00
11107;DHT22;5607;48.302;14.294;2023-05-02T17:57:36;14.80;1.00
11107;DHT22;5607;48.302;14.294;2023-05-02T18:00:22;14.80;1.00
11107;DHT22;5607;48.302;14.294;2023-05-02T18:03:09;14.90;1.00
11107;DHT22;5607;48.302;14.294;2023-05-02T18:05:55;14.90;1.00
11107;DHT22;5607;48.302;14.294;2023-05-02T18:08:41;14.80;1.00
11107;DHT22;5607;48.302;14.294;2023-05-02T18:11:28;14.90;1.00
11107;DHT22;5607;48.302;14.294;2023-05-02T18:14:17;14.80;1.00
11107;DHT22;5607;48.302;14.294;2023-05-02T18:17:04;14.80;1.00
11107;DHT22;5607;48.302;14.294;2023-05-02T18:19:50;14.50;1.00
11107;DHT22;5607;48.302;14.294;2023-05-02T18:22:36;14.50;1.00
11107;DHT22;5607;48.302;14.294;2023-05-02T18:25:22;14.50;1.00
11107;DHT22;5607;48.302;14.294;2023-05-02T18:28:09;14.60;1.00
11107;DHT22;5607;48.302;14.294;2023-05-02T18:30:55;14.50;1.00
11107;DHT22;5607;48.302;14.294;2023-05-02T18:33:41;14.50;1.00